createdAt,value
2023-02-27T00:00:17.658Z,6.00
2023-02-27T00:02:46.183Z,6.50
2023-02-27T00:05:13.804Z,5.90
2023-02-27T00:07:40.752Z,5.03
2023-02-27T00:10:10.598Z,4.47
2023-02-27T00:12:40.183Z,5.60
2023-02-27T00:17:35.869Z,6.18
2023-02-27T00:20:03.757Z,5.65
2023-02-27T00:22:30.589Z,4.68
2023-02-27T00:24:57.138Z,7.05
2023-02-27T00:27:23.980Z,6.50
2023-02-27T00:29:50.571Z,4.97
2023-02-27T00:32:17.147Z,4.10
2023-02-27T00:34:43.818Z,5.53
2023-02-27T00:37:10.468Z,4.35
2023-02-27T00:39:36.958Z,6.22
2023-02-27T00:42:03.732Z,4.00
2023-02-27T00:44:30.303Z,6.63
2023-02-27T00:46:56.810Z,9.25
2023-02-27T00:49:23.355Z,4.30
2023-02-27T00:51:49.898Z,5.13
2023-02-27T00:54:16.423Z,4.88
2023-02-27T00:56:42.978Z,5.68
2023-02-27T00:59:09.705Z,5.28
2023-02-27T01:01:36.484Z,7.93
2023-02-27T01:04:02.932Z,5.20
2023-02-27T01:06:29.498Z,4.65
2023-02-27T01:08:56.088Z,8.93
2023-02-27T01:11:22.874Z,6.28
2023-02-27T01:13:49.360Z,4.05
2023-02-27T01:16:15.898Z,5.38
2023-02-27T01:18:42.681Z,6.13
2023-02-27T01:21:09.206Z,7.40
2023-02-27T01:23:35.772Z,5.20
2023-02-27T01:26:02.306Z,5.95
2023-02-27T01:28:28.848Z,4.25
2023-02-27T01:30:55.497Z,6.55
2023-02-27T01:33:22.171Z,7.28
2023-02-27T01:35:48.685Z,6.28
2023-02-27T01:38:15.355Z,9.07
2023-02-27T01:40:42.725Z,9.10
2023-02-27T01:43:18.481Z,5.07
2023-02-27T01:45:48.456Z,6.63
2023-02-27T01:48:20.749Z,4.95
2023-02-27T01:50:54.901Z,6.25
2023-02-27T01:53:25.885Z,6.25
2023-02-27T01:55:56.706Z,8.68
2023-02-27T01:58:23.570Z,12.65
2023-02-27T02:00:50.219Z,7.55
2023-02-27T02:03:33.110Z,5.85
2023-02-27T02:06:02.478Z,7.57
2023-02-27T02:08:33.022Z,5.32
2023-02-27T02:11:00.305Z,7.22
2023-02-27T02:13:27.100Z,5.93
2023-02-27T02:16:06.725Z,9.38
2023-02-27T02:18:59.059Z,8.02
2023-02-27T02:21:44.543Z,8.35
2023-02-27T02:24:29.849Z,6.07
2023-02-27T02:27:19.047Z,7.97
2023-02-27T02:29:57.951Z,4.75
2023-02-27T02:33:17.145Z,5.85
2023-02-27T02:35:58.524Z,6.78
2023-02-27T02:38:33.409Z,4.68
2023-02-27T02:41:47.515Z,4.97
2023-02-27T02:44:20.345Z,5.28
2023-02-27T02:47:13.169Z,5.10
2023-02-27T02:49:55.410Z,5.45
2023-02-27T02:52:37.046Z,4.85
2023-02-27T02:55:15.748Z,4.50
2023-02-27T02:58:29.038Z,4.78
2023-02-27T03:01:11.136Z,6.85
2023-02-27T03:06:33.129Z,3.78
2023-02-27T03:09:06.541Z,9.93
2023-02-27T03:11:38.133Z,6.97
2023-02-27T03:14:21.759Z,7.85
2023-02-27T03:16:53.485Z,4.38
2023-02-27T03:19:37.166Z,4.55
2023-02-27T03:22:08.821Z,4.32
2023-02-27T03:24:39.804Z,5.07
2023-02-27T03:27:08.919Z,10.15
2023-02-27T03:29:58.227Z,4.15
2023-02-27T03:32:29.941Z,6.78
2023-02-27T03:34:56.952Z,5.90
2023-02-27T03:37:57.438Z,9.10
2023-02-27T03:40:38.767Z,8.70
2023-02-27T03:43:23.748Z,9.50
2023-02-27T03:45:56.067Z,6.30
2023-02-27T03:48:23.099Z,5.85
2023-02-27T03:50:49.709Z,8.30
2023-02-27T03:53:35.956Z,5.68
2023-02-27T03:56:05.553Z,6.65
2023-02-27T03:58:32.404Z,5.63
2023-02-27T04:00:59.216Z,5.93
2023-02-27T04:03:26.763Z,6.45
2023-02-27T04:05:53.414Z,7.78
2023-02-27T04:08:51.080Z,5.45
2023-02-27T04:11:50.854Z,6.00
2023-02-27T04:14:46.397Z,6.90
2023-02-27T04:17:25.663Z,7.55
2023-02-27T04:20:10.899Z,5.18
2023-02-27T04:22:44.659Z,5.30
2023-02-27T04:25:31.417Z,4.13
2023-02-27T04:28:06.929Z,5.40
2023-02-27T04:30:45.849Z,4.25
2023-02-27T04:33:28.033Z,4.70
2023-02-27T04:36:00.306Z,5.03
2023-02-27T04:38:38.991Z,5.50
2023-02-27T04:41:13.062Z,5.05
2023-02-27T04:43:41.929Z,8.10
2023-02-27T04:46:12.994Z,3.80
2023-02-27T04:48:54.377Z,8.93
2023-02-27T04:51:26.548Z,6.70
2023-02-27T04:54:10.877Z,3.38
2023-02-27T04:56:47.653Z,5.72
2023-02-27T04:59:23.177Z,6.32
2023-02-27T05:01:59.719Z,5.93
2023-02-27T05:04:29.832Z,6.50
2023-02-27T05:06:57.917Z,5.30
2023-02-27T05:09:29.061Z,7.15
2023-02-27T05:12:10.980Z,6.00
2023-02-27T05:14:59.493Z,4.45
2023-02-27T05:17:31.846Z,4.07
2023-02-27T05:19:59.397Z,6.10
2023-02-27T05:22:41.138Z,7.10
2023-02-27T05:25:29.540Z,4.22
2023-02-27T05:27:55.989Z,8.65
2023-02-27T05:30:49.489Z,4.22
2023-02-27T05:33:23.662Z,4.63
2023-02-27T05:36:05.657Z,6.57
2023-02-27T05:41:17.293Z,6.65
2023-02-27T05:43:49.025Z,4.45
2023-02-27T05:46:21.301Z,4.30
2023-02-27T05:48:56.689Z,9.77
2023-02-27T05:51:27.796Z,3.90
2023-02-27T05:54:02.523Z,6.18
2023-02-27T05:56:32.318Z,5.10
2023-02-27T05:59:20.545Z,6.28
2023-02-27T06:04:13.641Z,8.88
2023-02-27T06:06:42.021Z,6.22
2023-02-27T06:09:09.341Z,8.50
2023-02-27T06:11:35.798Z,6.43
2023-02-27T06:14:03.325Z,9.25
2023-02-27T06:16:30.561Z,6.28
2023-02-27T06:18:57.247Z,4.72
2023-02-27T06:21:23.785Z,6.90
2023-02-27T06:23:50.417Z,5.20
2023-02-27T06:26:16.912Z,4.00
2023-02-27T06:28:43.604Z,5.25
2023-02-27T06:31:10.153Z,5.97
2023-02-27T06:33:37.453Z,8.68
2023-02-27T06:36:04.597Z,5.40
2023-02-27T06:38:31.536Z,9.85
2023-02-27T06:40:58.825Z,4.38
2023-02-27T06:43:25.565Z,4.43
2023-02-27T06:45:55.736Z,4.85
2023-02-27T06:48:22.384Z,9.68
2023-02-27T06:50:56.512Z,7.68
2023-02-27T06:53:24.411Z,10.25
2023-02-27T06:55:51.526Z,8.77
2023-02-27T06:58:18.145Z,5.82
2023-02-27T07:00:44.752Z,4.80
2023-02-27T07:03:12.543Z,5.90
2023-02-27T07:05:41.293Z,6.90
2023-02-27T07:08:08.345Z,7.60
2023-02-27T07:10:34.995Z,5.57
2023-02-27T07:13:01.666Z,5.28
2023-02-27T07:15:28.297Z,7.72
2023-02-27T07:17:54.840Z,11.07
2023-02-27T07:20:21.414Z,7.00
2023-02-27T07:22:47.931Z,8.60
2023-02-27T07:25:14.673Z,7.97
2023-02-27T07:27:41.431Z,8.40
2023-02-27T07:30:10.075Z,8.50
2023-02-27T07:32:36.599Z,7.10
2023-02-27T07:35:03.991Z,8.45
2023-02-27T07:37:30.786Z,8.23
2023-02-27T07:39:57.236Z,6.93
2023-02-27T07:42:23.928Z,12.70
2023-02-27T07:44:50.434Z,7.85
2023-02-27T07:47:17.899Z,7.30
2023-02-27T07:49:44.615Z,9.30
2023-02-27T07:52:11.458Z,6.43
2023-02-27T07:54:38.270Z,6.47
2023-02-27T07:57:05.841Z,8.25
2023-02-27T07:59:32.719Z,7.72
2023-02-27T08:01:59.304Z,9.30
2023-02-27T08:04:25.917Z,7.57
2023-02-27T08:06:52.492Z,7.53
2023-02-27T08:09:19.033Z,10.57
2023-02-27T08:11:47.263Z,8.07
2023-02-27T08:14:15.465Z,7.65
2023-02-27T08:16:41.996Z,6.68
2023-02-27T08:19:08.594Z,7.75
2023-02-27T08:21:35.075Z,9.60
2023-02-27T08:24:01.721Z,9.25
2023-02-27T08:26:28.414Z,10.48
2023-02-27T08:28:55.192Z,8.45
2023-02-27T08:31:21.748Z,7.47
2023-02-27T08:33:49.637Z,9.07
2023-02-27T08:36:19.955Z,9.90
2023-02-27T08:38:46.472Z,7.65
2023-02-27T08:41:13.041Z,7.53
2023-02-27T08:43:39.524Z,7.65
2023-02-27T08:46:06.414Z,7.35
2023-02-27T08:48:33.046Z,7.68
2023-02-27T08:50:59.747Z,8.18
2023-02-27T08:53:26.612Z,8.85
2023-02-27T08:55:53.471Z,6.00
2023-02-27T08:58:20.086Z,9.18
2023-02-27T09:00:46.796Z,6.07
2023-02-27T09:03:13.476Z,8.55
2023-02-27T09:05:42.113Z,6.95
2023-02-27T09:08:09.305Z,7.80
2023-02-27T09:10:35.969Z,6.70
2023-02-27T09:13:02.650Z,4.18
2023-02-27T09:15:30.187Z,4.30
2023-02-27T09:18:00.247Z,6.65
2023-02-27T09:20:26.772Z,5.53
2023-02-27T09:22:53.297Z,7.90
2023-02-27T09:25:19.813Z,6.00
2023-02-27T09:27:46.293Z,5.28
2023-02-27T09:30:13.212Z,3.55
2023-02-27T09:32:39.962Z,6.47
2023-02-27T09:35:07.340Z,6.88
2023-02-27T09:37:33.824Z,5.45
2023-02-27T09:40:00.361Z,6.88
2023-02-27T09:42:36.917Z,6.00
2023-02-27T09:45:06.586Z,8.93
2023-02-27T09:47:48.102Z,7.55
2023-02-27T09:52:45.105Z,5.00
2023-02-27T09:55:17.446Z,5.80
2023-02-27T09:57:55.877Z,8.68
2023-02-27T10:00:29.108Z,7.22
2023-02-27T10:03:11.600Z,5.50
2023-02-27T10:06:09.638Z,5.75
2023-02-27T10:08:46.120Z,5.63
2023-02-27T10:11:17.219Z,4.55
2023-02-27T10:13:52.719Z,6.30
2023-02-27T10:16:21.689Z,7.50
2023-02-27T10:18:59.471Z,4.97
2023-02-27T10:21:48.896Z,5.57
2023-02-27T10:24:33.790Z,9.30
2023-02-27T10:27:03.020Z,7.10
2023-02-27T10:29:32.503Z,5.55
2023-02-27T10:32:05.299Z,5.05
2023-02-27T10:34:33.448Z,4.15
2023-02-27T10:37:05.912Z,5.80
2023-02-27T10:39:46.254Z,7.18
2023-02-27T10:42:15.419Z,4.85
2023-02-27T10:44:42.248Z,5.78
2023-02-27T10:47:14.909Z,3.78
2023-02-27T10:49:43.003Z,5.70
2023-02-27T10:52:13.201Z,6.03
2023-02-27T10:54:41.385Z,3.80
2023-02-27T10:57:39.539Z,4.35
2023-02-27T11:00:30.573Z,2.70
2023-02-27T11:02:57.861Z,6.30
2023-02-27T11:05:24.340Z,4.65
2023-02-27T11:07:51.340Z,4.25
2023-02-27T11:10:27.846Z,5.18
2023-02-27T11:12:59.660Z,5.18
2023-02-27T11:15:29.556Z,5.65
2023-02-27T11:18:21.713Z,2.80
2023-02-27T11:23:20.467Z,3.97
2023-02-27T11:25:47.613Z,5.65
2023-02-27T11:28:30.777Z,6.65
2023-02-27T11:38:27.340Z,3.90
2023-02-27T11:41:12.554Z,4.50
2023-02-27T11:43:59.011Z,3.60
2023-02-27T11:46:46.133Z,3.42
2023-02-27T11:49:35.079Z,4.40
2023-02-27T11:52:20.897Z,6.93
2023-02-27T11:55:10.502Z,2.50
2023-02-27T11:57:43.841Z,5.75
2023-02-27T12:00:31.345Z,4.82
2023-02-27T12:05:40.780Z,5.20
2023-02-27T12:08:14.553Z,4.97
2023-02-27T12:11:07.784Z,5.85
2023-02-27T12:13:43.091Z,5.45
2023-02-27T12:16:21.749Z,3.50
2023-02-27T12:18:52.853Z,7.97
2023-02-27T12:21:26.539Z,8.55
2023-02-27T12:24:19.729Z,3.40
2023-02-27T12:26:52.582Z,5.38
2023-02-27T12:29:19.328Z,3.40
2023-02-27T12:32:24.869Z,7.53
2023-02-27T12:34:59.046Z,5.00
2023-02-27T12:37:29.348Z,5.00
2023-02-27T12:39:59.114Z,5.47
2023-02-27T12:42:39.810Z,5.63
2023-02-27T12:45:09.507Z,4.30
2023-02-27T12:47:57.853Z,4.32
2023-02-27T12:50:30.922Z,4.68
2023-02-27T12:53:31.704Z,3.33
2023-02-27T12:56:02.401Z,5.47
2023-02-27T12:59:27.447Z,1.85
2023-02-27T13:01:59.921Z,5.65
2023-02-27T13:04:39.824Z,6.38
2023-02-27T13:07:21.900Z,4.05
2023-02-27T13:10:01.329Z,5.57
2023-02-27T13:12:41.170Z,5.25
2023-02-27T13:15:23.730Z,5.88
2023-02-27T13:18:01.723Z,4.32
2023-02-27T13:20:44.740Z,5.40
2023-02-27T13:23:23.416Z,5.90
2023-02-27T13:25:51.798Z,3.15
2023-02-27T13:28:27.219Z,4.25
2023-02-27T13:31:07.619Z,4.90
2023-02-27T13:33:34.085Z,8.35
2023-02-27T13:36:12.453Z,7.25
2023-02-27T13:38:49.746Z,6.05
2023-02-27T13:41:37.003Z,4.97
2023-02-27T13:44:21.806Z,5.70
2023-02-27T13:46:48.451Z,7.22
2023-02-27T13:49:29.205Z,4.18
2023-02-27T13:52:02.769Z,9.73
2023-02-27T13:54:39.213Z,5.55
2023-02-27T13:57:15.883Z,6.38
2023-02-27T13:59:44.355Z,5.18
2023-02-27T14:02:11.074Z,3.20
2023-02-27T14:04:50.161Z,3.50
2023-02-27T14:07:21.490Z,6.28
2023-02-27T14:09:51.698Z,5.97
2023-02-27T14:12:42.502Z,5.05
2023-02-27T14:15:22.883Z,7.30
2023-02-27T14:18:09.225Z,3.75
2023-02-27T14:20:38.981Z,4.07
2023-02-27T14:23:25.752Z,4.10
2023-02-27T14:25:55.630Z,4.43
2023-02-27T14:28:34.306Z,4.78
2023-02-27T14:31:02.980Z,5.55
2023-02-27T14:33:48.390Z,6.53
2023-02-27T14:36:27.772Z,2.55
2023-02-27T14:38:58.868Z,5.72
2023-02-27T14:41:34.214Z,2.92
2023-02-27T14:44:01.266Z,4.57
2023-02-27T14:46:39.201Z,5.53
2023-02-27T14:49:21.261Z,2.33
2023-02-27T14:51:48.411Z,3.83
2023-02-27T14:54:17.850Z,3.80
2023-02-27T14:57:04.343Z,5.15
2023-02-27T14:59:45.651Z,4.18
2023-02-27T15:02:21.844Z,3.05
2023-02-27T15:04:54.309Z,3.42
2023-02-27T15:07:24.852Z,3.15
2023-02-27T15:09:54.771Z,6.25
2023-02-27T15:12:22.880Z,5.10
2023-02-27T15:14:56.914Z,3.90
2023-02-27T15:17:27.083Z,5.22
2023-02-27T15:19:59.325Z,2.60
2023-02-27T15:22:38.902Z,4.30
2023-02-27T15:25:44.546Z,4.47
2023-02-27T15:28:26.382Z,4.95
2023-02-27T15:33:27.379Z,4.20
2023-02-27T15:35:54.179Z,4.97
2023-02-27T15:38:28.432Z,6.57
2023-02-27T15:40:57.258Z,4.30
2023-02-27T15:43:26.444Z,4.35
2023-02-27T15:45:53.606Z,4.55
2023-02-27T15:48:32.474Z,6.07
2023-02-27T15:51:02.027Z,4.47
2023-02-27T15:53:33.886Z,3.83
2023-02-27T15:56:13.149Z,5.18
2023-02-27T15:58:50.851Z,7.03
2023-02-27T16:01:19.777Z,4.65
2023-02-27T16:03:52.581Z,7.07
2023-02-27T16:06:20.234Z,4.68
2023-02-27T16:09:24.427Z,5.72
2023-02-27T16:12:30.150Z,4.28
2023-02-27T16:15:23.927Z,5.80
2023-02-27T16:18:08.817Z,4.18
2023-02-27T16:20:47.749Z,4.28
2023-02-27T16:23:25.189Z,5.30
2023-02-27T16:26:05.524Z,7.60
2023-02-27T16:28:39.398Z,4.88
2023-02-27T16:31:19.016Z,3.63
2023-02-27T16:33:45.613Z,5.82
2023-02-27T16:36:18.541Z,7.00
2023-02-27T16:38:46.247Z,7.07
2023-02-27T16:41:17.304Z,3.40
2023-02-27T16:43:46.165Z,6.32
2023-02-27T16:46:19.991Z,7.32
2023-02-27T16:48:53.140Z,5.43
2023-02-27T16:51:23.895Z,3.63
2023-02-27T16:53:53.725Z,4.10
2023-02-27T16:56:35.716Z,4.13
2023-02-27T16:59:03.877Z,4.28
2023-02-27T17:01:32.926Z,4.70
2023-02-27T17:04:00.517Z,4.47
2023-02-27T17:06:27.601Z,8.82
2023-02-27T17:08:55.977Z,4.57
2023-02-27T17:11:22.680Z,7.75
2023-02-27T17:13:49.257Z,3.15
2023-02-27T17:16:16.146Z,3.97
2023-02-27T17:18:42.685Z,4.13
2023-02-27T17:21:09.299Z,4.65
2023-02-27T17:23:35.807Z,5.55
2023-02-27T17:26:02.414Z,6.30
2023-02-27T17:28:29.054Z,3.83
2023-02-27T17:30:55.708Z,3.58
2023-02-27T17:33:22.274Z,4.38
2023-02-27T17:35:48.953Z,4.00
2023-02-27T17:38:15.654Z,3.60
2023-02-27T17:40:42.444Z,5.97
2023-02-27T17:43:09.003Z,5.45
2023-02-27T17:45:35.562Z,4.85
2023-02-27T17:48:02.166Z,5.78
2023-02-27T17:50:28.786Z,3.30
2023-02-27T17:52:55.338Z,3.15
2023-02-27T17:55:21.961Z,3.78
2023-02-27T17:57:48.502Z,6.55
2023-02-27T18:00:15.526Z,3.45
2023-02-27T18:02:45.195Z,4.35
2023-02-27T18:05:11.818Z,5.95
2023-02-27T18:07:38.399Z,4.13
2023-02-27T18:10:08.999Z,5.18
2023-02-27T18:12:36.362Z,3.47
2023-02-27T18:15:04.074Z,5.10
2023-02-27T18:17:30.745Z,6.32
2023-02-27T18:19:58.056Z,4.88
2023-02-27T18:22:25.004Z,3.80
2023-02-27T18:24:55.369Z,4.95
2023-02-27T18:27:22.344Z,3.33
2023-02-27T18:29:52.190Z,6.15
2023-02-27T18:32:18.800Z,7.20
2023-02-27T18:34:45.708Z,4.75
2023-02-27T18:37:12.372Z,4.28
2023-02-27T18:39:38.977Z,4.90
2023-02-27T18:42:06.801Z,6.00
2023-02-27T18:44:33.680Z,4.97
2023-02-27T18:47:00.585Z,5.80
2023-02-27T18:49:27.117Z,5.32
2023-02-27T18:51:53.717Z,5.85
2023-02-27T18:54:21.352Z,5.55
2023-02-27T18:56:50.915Z,4.15
2023-02-27T18:59:17.826Z,5.45
2023-02-27T19:01:44.712Z,6.47
2023-02-27T19:04:11.314Z,8.07
2023-02-27T19:06:42.970Z,7.03
2023-02-27T19:09:12.697Z,4.57
2023-02-27T19:11:39.401Z,9.27
2023-02-27T19:14:08.675Z,6.95
2023-02-27T19:16:35.889Z,7.07
2023-02-27T19:19:04.931Z,6.13
2023-02-27T19:21:32.049Z,6.38
2023-02-27T19:23:58.640Z,5.75
2023-02-27T19:26:25.498Z,7.75
2023-02-27T19:28:53.942Z,6.07
2023-02-27T19:31:23.575Z,6.57
2023-02-27T19:36:19.837Z,9.07
2023-02-27T19:38:46.670Z,5.97
2023-02-27T19:41:14.817Z,7.60
2023-02-27T19:43:41.527Z,6.13
2023-02-27T19:46:10.927Z,5.50
2023-02-27T19:48:38.597Z,7.38
2023-02-27T19:51:08.241Z,6.65
2023-02-27T19:53:36.118Z,7.82
2023-02-27T19:56:08.271Z,9.65
2023-02-27T19:58:36.113Z,6.93
2023-02-27T20:01:04.377Z,6.97
2023-02-27T20:03:31.522Z,8.02
2023-02-27T20:05:58.787Z,9.40
2023-02-27T20:08:25.590Z,7.80
2023-02-27T20:10:59.128Z,8.52
2023-02-27T20:13:26.815Z,10.32
2023-02-27T20:16:02.489Z,8.10
2023-02-27T20:21:09.271Z,8.18
2023-02-27T20:23:38.372Z,8.80
2023-02-27T20:26:32.073Z,11.30
2023-02-27T20:29:01.640Z,14.23
2023-02-27T20:33:57.477Z,9.50
2023-02-27T20:36:24.718Z,13.63
2023-02-27T20:38:51.261Z,8.60
2023-02-27T20:41:21.449Z,8.57
2023-02-27T20:43:48.862Z,11.25
2023-02-27T20:46:19.539Z,9.73
2023-02-27T20:48:46.344Z,7.63
2023-02-27T20:51:14.939Z,8.68
2023-02-27T20:53:43.640Z,10.18
2023-02-27T20:56:11.095Z,10.23
2023-02-27T20:58:39.221Z,12.00
2023-02-27T21:01:14.161Z,13.65
2023-02-27T21:03:42.776Z,9.52
2023-02-27T21:06:11.825Z,11.68
2023-02-27T21:08:40.745Z,10.45
2023-02-27T21:11:16.396Z,10.75
2023-02-27T21:13:44.064Z,12.43
2023-02-27T21:16:13.061Z,12.80
2023-02-27T21:18:39.734Z,9.32
2023-02-27T21:21:09.190Z,12.68
2023-02-27T21:23:41.288Z,8.38
2023-02-27T21:26:23.859Z,12.70
2023-02-27T21:28:56.606Z,11.40
2023-02-27T21:31:25.715Z,10.93
2023-02-27T21:33:53.296Z,12.38
2023-02-27T21:36:28.779Z,10.68
2023-02-27T21:38:57.989Z,10.40
2023-02-27T21:41:24.863Z,14.90
2023-02-27T21:43:51.354Z,9.35
2023-02-27T21:46:18.289Z,11.82
2023-02-27T21:48:45.050Z,8.25
2023-02-27T21:51:11.530Z,12.15
2023-02-27T21:53:38.196Z,10.15
2023-02-27T21:56:14.005Z,11.77
2023-02-27T21:58:40.612Z,11.50
2023-02-27T22:01:17.916Z,10.93
2023-02-27T22:03:46.626Z,13.88
2023-02-27T22:06:14.658Z,9.88
2023-02-27T22:08:42.277Z,8.82
2023-02-27T22:11:09.124Z,7.95
2023-02-27T22:13:36.334Z,12.48
2023-02-27T22:16:07.396Z,11.98
2023-02-27T22:18:34.814Z,12.02
2023-02-27T22:21:02.351Z,10.93
2023-02-27T22:23:29.087Z,9.80
2023-02-27T22:26:04.243Z,10.80
2023-02-27T22:28:31.768Z,15.63
2023-02-27T22:31:22.064Z,11.10
2023-02-27T22:33:51.691Z,17.33
2023-02-27T22:36:27.628Z,8.75
2023-02-27T22:38:54.237Z,16.63
2023-02-27T22:41:23.547Z,10.13
2023-02-27T22:43:50.685Z,9.85
2023-02-27T22:46:24.850Z,9.50
2023-02-27T22:48:56.111Z,8.43
2023-02-27T22:51:24.832Z,13.27
2023-02-27T22:53:51.693Z,9.13
2023-02-27T22:56:18.281Z,9.55
2023-02-27T22:58:45.485Z,13.40
2023-02-27T23:01:16.390Z,9.50
2023-02-27T23:03:44.868Z,11.27
2023-02-27T23:06:16.699Z,8.32
2023-02-27T23:08:43.848Z,7.38
2023-02-27T23:11:12.587Z,11.13
2023-02-27T23:13:39.735Z,9.70
2023-02-27T23:16:11.596Z,8.13
2023-02-27T23:18:46.327Z,10.50
2023-02-27T23:21:14.144Z,11.73
2023-02-27T23:23:40.757Z,14.05
2023-02-27T23:26:07.446Z,10.15
2023-02-27T23:28:36.719Z,8.35
2023-02-27T23:31:04.814Z,9.88
2023-02-27T23:33:31.849Z,7.10
2023-02-27T23:35:58.677Z,8.68
2023-02-27T23:38:26.310Z,8.43
2023-02-27T23:40:54.072Z,9.20
2023-02-27T23:43:39.983Z,10.63
2023-02-27T23:46:10.438Z,8.13
2023-02-27T23:48:37.256Z,8.77
2023-02-27T23:51:05.520Z,12.23
2023-02-27T23:53:33.041Z,11.15
2023-02-27T23:55:59.844Z,9.43
2023-02-27T23:58:26.476Z,9.10
